Time;durP1;ratioP1;P1;durP2;ratioP2;P2;SDS_P1;SDS_P2;PMS_P1;PMS_P2;Temp;Humidity;BMP_temperature;BMP_pressure;BME280_temperature;BME280_humidity;BME280_pressure;Samples;Min_cycle;Max_cycle;Signal;HPM_P1;HPM_P2
2023/07/03 00:00:43;;;;;;;3.85;2.65;;;20.30;99.90;;;;;;4998260;28;20045;-69
2023/07/03 00:03:16;;;;;;;4.63;3.00;;;20.20;99.90;;;;;;4995347;28;20046;-69
2023/07/03 00:05:46;;;;;;;3.50;2.85;;;20.20;99.90;;;;;;4999169;28;20048;-68
2023/07/03 00:08:13;;;;;;;3.70;3.17;;;20.20;99.90;;;;;;4995111;28;20050;-68
2023/07/03 00:10:38;;;;;;;4.38;3.38;;;20.20;99.90;;;;;;4992455;28;20033;-69
2023/07/03 00:13:04;;;;;;;5.57;3.25;;;20.20;99.90;;;;;;4991951;28;20057;-68
2023/07/03 00:15:30;;;;;;;3.75;3.03;;;20.20;99.90;;;;;;4992819;28;20116;-69
2023/07/03 00:17:55;;;;;;;4.15;3.30;;;20.20;99.90;;;;;;4991431;28;20041;-68
2023/07/03 00:20:21;;;;;;;3.60;2.42;;;20.20;99.90;;;;;;4991393;28;20120;-68
2023/07/03 00:22:47;;;;;;;4.07;2.83;;;20.10;99.90;;;;;;4989192;28;20450;-69
2023/07/03 00:25:14;;;;;;;3.88;2.70;;;20.00;99.90;;;;;;4986958;28;20162;-68
2023/07/03 00:27:40;;;;;;;4.45;3.10;;;19.90;99.90;;;;;;4986362;28;20057;-68
2023/07/03 00:30:06;;;;;;;3.35;2.80;;;19.80;99.90;;;;;;4988205;28;20959;-68
2023/07/03 00:32:32;;;;;;;3.80;2.83;;;19.80;99.90;;;;;;4990145;28;20049;-68
2023/07/03 00:34:58;;;;;;;4.45;2.63;;;19.70;99.90;;;;;;4980130;28;20050;-67
2023/07/03 00:37:23;;;;;;;4.50;3.00;;;19.60;99.90;;;;;;4986973;28;20055;-67
2023/07/03 00:39:49;;;;;;;4.90;3.00;;;19.40;99.90;;;;;;4982096;28;20038;-68
2023/07/03 00:42:15;;;;;;;5.13;2.90;;;19.50;99.90;;;;;;4983952;28;20600;-68
2023/07/03 00:44:41;;;;;;;7.65;3.08;;;19.60;99.90;;;;;;4983611;28;20038;-67
2023/07/03 00:47:10;;;;;;;5.13;3.13;;;19.40;99.90;;;;;;4984261;28;20053;-68
2023/07/03 00:49:36;;;;;;;4.38;2.75;;;19.30;99.90;;;;;;4991599;28;20130;-68
2023/07/03 00:52:02;;;;;;;4.60;3.28;;;19.20;99.90;;;;;;4991938;28;20781;-67
2023/07/03 00:54:29;;;;;;;6.68;2.97;;;19.30;99.90;;;;;;4988842;28;20042;-67
2023/07/03 00:56:55;;;;;;;5.65;3.58;;;19.30;99.90;;;;;;4987481;28;20048;-68
2023/07/03 00:59:22;;;;;;;3.85;2.72;;;19.20;99.90;;;;;;4992601;28;20089;-67
2023/07/03 01:01:53;;;;;;;6.57;2.58;;;19.10;99.90;;;;;;4988239;28;20038;-67
2023/07/03 01:04:41;;;;;;;4.32;2.88;;;19.10;99.90;;;;;;4986877;28;20038;-67
2023/07/03 01:07:13;;;;;;;7.03;3.10;;;19.10;99.90;;;;;;4973262;28;20581;-67
2023/07/03 01:09:45;;;;;;;4.15;2.83;;;19.10;99.90;;;;;;4988581;28;20475;-68
2023/07/03 01:12:12;;;;;;;3.47;2.97;;;19.10;99.90;;;;;;4991893;28;20046;-68
2023/07/03 01:14:40;;;;;;;3.95;2.80;;;19.00;99.90;;;;;;4987614;28;20030;-68
2023/07/03 01:17:11;;;;;;;5.57;2.85;;;18.90;99.90;;;;;;4973399;28;20065;-68
2023/07/03 01:19:40;;;;;;;6.75;3.30;;;18.80;99.90;;;;;;4988414;28;20038;-68
2023/07/03 01:22:28;;;;;;;4.38;3.00;;;18.60;99.90;;;;;;4991726;28;20046;-68
2023/07/03 01:25:04;;;;;;;4.32;3.17;;;18.40;99.90;;;;;;4971414;28;20123;-68
2023/07/03 01:27:35;;;;;;;4.40;3.17;;;18.30;99.90;;;;;;4990795;28;20031;-67
2023/07/03 01:30:03;;;;;;;6.03;3.25;;;18.20;99.90;;;;;;4987853;28;20060;-67
2023/07/03 01:32:32;;;;;;;4.57;3.30;;;18.20;99.90;;;;;;4986184;28;20100;-67
2023/07/03 01:34:58;;;;;;;3.35;2.85;;;18.10;99.90;;;;;;4986079;28;20081;-67
2023/07/03 01:37:27;;;;;;;4.32;3.47;;;18.10;99.90;;;;;;4985183;28;20046;-67
2023/07/03 01:39:55;;;;;;;6.18;2.88;;;18.00;99.90;;;;;;4989067;28;20038;-67
2023/07/03 01:42:22;;;;;;;3.92;2.78;;;18.00;99.90;;;;;;4992738;28;20044;-68
2023/07/03 01:44:48;;;;;;;5.63;3.05;;;18.10;99.90;;;;;;4968850;28;20159;-68
2023/07/03 01:47:15;;;;;;;4.47;2.65;;;18.20;99.90;;;;;;4989477;28;20125;-68
2023/07/03 01:49:41;;;;;;;5.20;3.15;;;18.20;99.90;;;;;;4988307;28;20561;-68
2023/07/03 01:52:23;;;;;;;8.10;2.80;;;18.30;99.90;;;;;;4991725;28;20053;-68
2023/07/03 01:55:03;;;;;;;4.00;2.70;;;18.20;99.90;;;;;;4987804;28;20038;-68
2023/07/03 01:57:43;;;;;;;6.63;3.13;;;18.20;99.90;;;;;;4989529;28;20045;-68
2023/07/03 02:00:14;;;;;;;4.57;2.72;;;18.10;99.90;;;;;;4982456;28;20639;-68
2023/07/03 02:02:45;;;;;;;4.30;3.05;;;18.10;99.90;;;;;;4988420;28;20769;-68
2023/07/03 02:05:16;;;;;;;6.32;3.35;;;18.00;99.90;;;;;;4992936;28;20120;-68
2023/07/03 02:07:47;;;;;;;4.85;3.20;;;18.00;99.90;;;;;;4985542;28;20046;-68
2023/07/03 02:10:13;;;;;;;5.43;3.10;;;18.00;99.90;;;;;;4969870;28;20061;-68
2023/07/03 02:12:41;;;;;;;4.18;3.25;;;17.90;99.90;;;;;;4992629;28;20030;-68
2023/07/03 02:15:07;;;;;;;5.68;3.42;;;17.80;99.90;;;;;;4990118;28;20045;-68
2023/07/03 02:17:33;;;;;;;3.72;3.05;;;17.70;99.90;;;;;;4992415;28;20115;-69
2023/07/03 02:19:59;;;;;;;3.80;2.83;;;17.60;99.90;;;;;;4987680;28;20057;-68
2023/07/03 02:22:25;;;;;;;5.40;3.95;;;17.60;99.90;;;;;;4987283;28;20050;-68
2023/07/03 02:24:50;;;;;;;3.95;2.88;;;17.60;99.90;;;;;;4993213;28;20086;-68
2023/07/03 02:27:16;;;;;;;4.30;3.00;;;17.60;99.90;;;;;;4993664;28;20034;-68
2023/07/03 02:29:41;;;;;;;5.40;2.97;;;17.50;99.90;;;;;;4991994;28;20116;-68
2023/07/03 02:32:09;;;;;;;5.00;3.25;;;17.50;99.90;;;;;;4992027;28;20109;-67
2023/07/03 02:34:35;;;;;;;6.03;3.25;;;17.30;99.90;;;;;;4989813;28;20046;-68
2023/07/03 02:37:01;;;;;;;5.45;2.97;;;17.20;99.90;;;;;;4987030;28;20065;-68
2023/07/03 02:39:26;;;;;;;5.82;3.15;;;17.20;99.90;;;;;;4989626;28;20054;-68
2023/07/03 02:41:52;;;;;;;5.40;3.25;;;17.10;99.90;;;;;;4991686;28;20050;-67
2023/07/03 02:44:18;;;;;;;4.35;3.03;;;17.10;99.90;;;;;;4992554;28;20122;-67
2023/07/03 02:46:43;;;;;;;4.53;3.00;;;17.00;99.90;;;;;;4992481;28;20120;-66
2023/07/03 02:49:09;;;;;;;4.03;3.35;;;16.80;99.90;;;;;;4992132;28;20046;-67
2023/07/03 02:51:35;;;;;;;4.88;3.00;;;16.80;99.90;;;;;;4988160;28;20038;-67
2023/07/03 02:54:02;;;;;;;9.38;3.20;;;16.70;99.90;;;;;;4989355;28;20038;-67
2023/07/03 02:56:28;;;;;;;4.15;3.05;;;16.50;99.90;;;;;;4987107;28;20042;-67
2023/07/03 02:58:53;;;;;;;5.70;3.20;;;16.40;99.90;;;;;;4990476;28;20127;-68
2023/07/03 03:01:19;;;;;;;5.07;3.28;;;16.50;99.90;;;;;;4986949;28;20037;-68
2023/07/03 03:03:45;;;;;;;7.50;3.40;;;16.50;99.90;;;;;;4991364;28;20124;-68
2023/07/03 03:06:11;;;;;;;3.45;2.85;;;16.50;99.90;;;;;;4990114;28;20027;-68
2023/07/03 03:08:36;;;;;;;4.75;3.40;;;16.50;99.90;;;;;;4989135;28;20336;-68
2023/07/03 03:11:03;;;;;;;4.88;2.85;;;16.40;99.90;;;;;;4992027;28;20042;-68
2023/07/03 03:13:28;;;;;;;3.97;3.17;;;16.50;99.90;;;;;;4990848;28;20564;-68
2023/07/03 03:15:54;;;;;;;3.60;3.22;;;16.40;99.90;;;;;;4992396;28;20062;-68
2023/07/03 03:18:20;;;;;;;5.07;3.20;;;16.30;99.90;;;;;;4990642;28;20057;-67
2023/07/03 03:20:46;;;;;;;4.03;2.92;;;16.30;99.90;;;;;;4990545;28;20034;-67
2023/07/03 03:23:13;;;;;;;3.72;3.00;;;16.30;99.90;;;;;;4988686;28;20589;-67
2023/07/03 03:25:38;;;;;;;5.93;3.20;;;16.20;99.90;;;;;;4987390;28;20048;-67
2023/07/03 03:28:05;;;;;;;3.08;2.78;;;16.30;99.90;;;;;;4991748;28;20072;-67
2023/07/03 03:30:31;;;;;;;4.38;3.17;;;16.30;99.90;;;;;;4992491;28;20104;-67
2023/07/03 03:32:58;;;;;;;4.95;3.13;;;16.30;99.90;;;;;;4987978;28;20046;-67
2023/07/03 03:35:24;;;;;;;6.18;3.00;;;16.30;99.90;;;;;;4988004;28;20442;-67
2023/07/03 03:37:49;;;;;;;3.97;3.10;;;16.40;99.90;;;;;;4993824;28;20042;-67
2023/07/03 03:40:15;;;;;;;8.77;3.58;;;16.50;99.90;;;;;;4990371;28;20060;-67
2023/07/03 03:42:41;;;;;;;4.95;3.53;;;16.50;99.90;;;;;;4991675;28;20051;-67
2023/07/03 03:45:07;;;;;;;4.75;3.03;;;16.50;99.90;;;;;;4988044;28;20133;-67
2023/07/03 03:47:33;;;;;;;4.20;3.58;;;16.60;99.90;;;;;;4993669;28;20033;-67
2023/07/03 03:49:59;;;;;;;4.18;3.03;;;16.60;99.90;;;;;;4989506;28;20042;-67
2023/07/03 03:52:25;;;;;;;4.47;3.15;;;16.70;99.90;;;;;;4984734;28;20112;-67
2023/07/03 03:54:50;;;;;;;7.20;3.55;;;16.70;99.90;;;;;;4993114;28;20457;-67
2023/07/03 03:57:16;;;;;;;5.28;3.40;;;16.80;99.90;;;;;;4985176;28;20038;-67
2023/07/03 03:59:42;;;;;;;4.15;3.28;;;16.70;99.90;;;;;;4989402;28;20068;-67
2023/07/03 04:02:08;;;;;;;4.40;3.47;;;16.70;99.90;;;;;;4988503;28;20038;-68
2023/07/03 04:04:34;;;;;;;4.10;3.20;;;16.70;99.90;;;;;;4987833;28;20100;-67
2023/07/03 04:06:59;;;;;;;4.88;3.15;;;16.80;99.90;;;;;;4990901;28;20038;-67
2023/07/03 04:09:25;;;;;;;3.70;3.25;;;16.80;99.90;;;;;;4989026;28;20042;-68
2023/07/03 04:11:50;;;;;;;3.92;3.00;;;16.90;99.90;;;;;;4990888;28;20053;-68
2023/07/03 04:14:16;;;;;;;6.30;3.13;;;16.90;99.90;;;;;;4989854;28;20048;-68
2023/07/03 04:16:43;;;;;;;4.70;3.50;;;17.00;99.90;;;;;;4975018;28;20041;-68
2023/07/03 04:19:09;;;;;;;6.00;3.75;;;17.10;99.90;;;;;;4993924;28;20046;-68
2023/07/03 04:21:35;;;;;;;5.72;3.20;;;17.20;99.90;;;;;;4990325;28;20234;-68
2023/07/03 04:24:01;;;;;;;4.07;3.38;;;17.30;99.90;;;;;;4991502;28;20721;-68
2023/07/03 04:26:26;;;;;;;6.78;3.15;;;17.50;99.90;;;;;;4993506;28;20096;-69
2023/07/03 04:28:52;;;;;;;7.43;3.30;;;17.60;99.90;;;;;;4994564;28;20578;-68
2023/07/03 04:31:18;;;;;;;6.60;3.45;;;17.70;99.90;;;;;;4994390;28;20046;-67
2023/07/03 04:33:45;;;;;;;4.93;3.33;;;17.70;99.90;;;;;;4988149;28;20137;-68
2023/07/03 04:36:12;;;;;;;4.97;3.50;;;17.80;99.90;;;;;;4997254;28;20710;-67
2023/07/03 04:38:41;;;;;;;4.63;3.10;;;17.90;99.90;;;;;;4992183;28;20195;-68
2023/07/03 04:41:07;;;;;;;5.60;3.55;;;18.00;99.90;;;;;;4998068;28;20041;-67
2023/07/03 04:43:33;;;;;;;4.57;3.20;;;18.20;99.90;;;;;;4991993;28;20317;-67
2023/07/03 04:46:03;;;;;;;5.05;2.88;;;18.30;99.90;;;;;;4992976;28;20455;-68
2023/07/03 04:48:30;;;;;;;6.25;3.10;;;18.30;99.90;;;;;;4991889;28;20050;-67
2023/07/03 04:50:55;;;;;;;5.93;3.35;;;18.50;99.90;;;;;;4994868;28;20045;-68
2023/07/03 04:53:21;;;;;;;4.30;3.35;;;18.60;99.90;;;;;;4996196;28;20599;-68
2023/07/03 04:55:47;;;;;;;4.60;3.42;;;18.70;99.90;;;;;;4992500;28;20037;-68
2023/07/03 04:58:14;;;;;;;3.35;2.72;;;18.80;99.90;;;;;;4990296;28;20133;-68
2023/07/03 05:00:40;;;;;;;4.85;3.40;;;18.90;99.90;;;;;;4972512;28;20129;-68
2023/07/03 05:03:07;;;;;;;5.25;3.15;;;19.10;99.90;;;;;;4985347;28;20052;-69
2023/07/03 05:05:33;;;;;;;14.52;3.50;;;19.20;99.90;;;;;;4989404;28;20112;-69
2023/07/03 05:07:59;;;;;;;10.18;3.40;;;19.30;99.90;;;;;;4993721;28;20117;-68
2023/07/03 05:10:25;;;;;;;13.32;3.70;;;19.40;99.90;;;;;;4985082;28;20038;-68
2023/07/03 05:12:51;;;;;;;7.15;3.30;;;19.60;99.90;;;;;;4985932;28;20046;-68
2023/07/03 05:15:18;;;;;;;12.40;3.85;;;19.70;99.90;;;;;;4988480;28;20040;-68
2023/07/03 05:17:49;;;;;;;22.35;3.72;;;19.80;99.90;;;;;;4982239;28;20196;-68
2023/07/03 05:20:17;;;;;;;6.72;3.22;;;20.00;99.90;;;;;;4990053;28;20049;-68
2023/07/03 05:22:44;;;;;;;3.60;2.60;;;20.10;99.90;;;;;;4990094;28;20125;-68
2023/07/03 05:25:11;;;;;;;10.23;3.33;;;20.20;99.90;;;;;;4971444;28;20037;-68
2023/07/03 05:27:38;;;;;;;7.30;3.33;;;20.30;99.90;;;;;;4994850;28;20059;-69
2023/07/03 05:30:05;;;;;;;24.20;3.90;;;20.50;99.90;;;;;;4990698;28;20037;-69
2023/07/03 05:32:32;;;;;;;6.28;2.90;;;20.60;99.90;;;;;;4987079;28;20049;-69
2023/07/03 05:34:59;;;;;;;8.88;2.70;;;20.70;99.90;;;;;;4990277;28;20040;-68
2023/07/03 05:37:25;;;;;;;8.95;3.17;;;20.80;99.90;;;;;;4992626;28;20793;-69
2023/07/03 05:39:51;;;;;;;7.07;3.05;;;21.00;99.90;;;;;;4991298;28;21119;-69
2023/07/03 05:42:18;;;;;;;3.58;2.88;;;21.10;99.90;;;;;;4985021;28;20061;-69
2023/07/03 05:44:44;;;;;;;4.03;3.00;;;21.30;99.90;;;;;;4987645;28;20096;-68
2023/07/03 05:47:11;;;;;;;15.45;3.20;;;21.40;99.90;;;;;;4988896;28;20042;-68
2023/07/03 05:49:37;;;;;;;6.38;3.03;;;21.50;99.90;;;;;;4986000;28;20061;-68
2023/07/03 05:52:03;;;;;;;3.42;2.63;;;21.70;99.90;;;;;;4997190;28;20406;-68
2023/07/03 05:54:29;;;;;;;5.55;2.80;;;21.80;99.90;;;;;;4975027;28;20461;-69
2023/07/03 05:57:00;;;;;;;2.92;2.70;;;22.00;99.90;;;;;;4995678;28;20034;-69
2023/07/03 05:59:26;;;;;;;5.72;2.78;;;22.20;99.90;;;;;;4992047;28;20053;-68
2023/07/03 06:01:54;;;;;;;4.47;2.65;;;22.40;99.90;;;;;;4989108;28;20031;-68
2023/07/03 06:04:22;;;;;;;4.70;2.55;;;22.50;99.90;;;;;;4988707;28;20046;-68
2023/07/03 06:06:49;;;;;;;3.75;2.92;;;22.70;99.90;;;;;;4995852;28;20104;-68
2023/07/03 06:09:14;;;;;;;4.20;2.72;;;22.80;99.90;;;;;;4988500;28;20092;-68
2023/07/03 06:11:40;;;;;;;4.32;2.20;;;23.00;99.90;;;;;;4995657;28;20022;-68
2023/07/03 06:14:13;;;;;;;3.25;2.17;;;23.00;99.90;;;;;;4994596;28;20081;-68
2023/07/03 06:16:39;;;;;;;4.63;2.22;;;23.10;99.90;;;;;;4987573;28;20038;-68
2023/07/03 06:19:04;;;;;;;4.03;2.15;;;23.30;99.90;;;;;;4989338;28;20548;-67
2023/07/03 06:21:30;;;;;;;2.05;1.85;;;23.40;99.90;;;;;;4993573;28;20030;-70
2023/07/03 06:23:56;;;;;;;3.88;1.55;;;23.50;99.90;;;;;;5000317;28;20802;-70
2023/07/03 06:26:21;;;;;;;27.08;3.88;;;23.70;99.90;;;;;;4993417;28;20054;-70
2023/07/03 06:28:47;;;;;;;2.80;1.95;;;23.80;99.90;;;;;;4995620;28;20030;-70
2023/07/03 06:31:12;;;;;;;2.22;1.73;;;23.90;99.90;;;;;;4988814;28;20041;-70
2023/07/03 06:33:38;;;;;;;4.45;1.77;;;23.90;99.90;;;;;;4988684;28;20119;-70
2023/07/03 06:36:04;;;;;;;1.98;1.75;;;24.00;99.90;;;;;;4999580;28;20107;-70
2023/07/03 06:38:29;;;;;;;3.63;2.17;;;24.00;99.90;;;;;;4991029;28;20054;-70
2023/07/03 06:40:57;;;;;;;5.07;2.08;;;24.10;99.90;;;;;;4991582;28;20044;-71
2023/07/03 06:43:23;;;;;;;2.08;1.88;;;24.20;99.90;;;;;;4993107;28;20049;-70
2023/07/03 06:45:48;;;;;;;2.45;1.90;;;24.30;99.90;;;;;;4994816;28;20218;-70
2023/07/03 06:48:14;;;;;;;2.55;1.95;;;24.30;99.90;;;;;;4980816;28;20061;-70
2023/07/03 06:50:39;;;;;;;2.88;1.90;;;24.30;99.90;;;;;;5000324;28;20034;-70
2023/07/03 06:53:05;;;;;;;2.33;2.03;;;24.30;99.90;;;;;;4997575;28;20400;-70
2023/07/03 06:55:31;;;;;;;3.47;2.45;;;24.50;99.90;;;;;;4989156;28;20358;-70
2023/07/03 06:57:58;;;;;;;6.15;2.50;;;24.60;99.90;;;;;;4993780;28;20058;-69
2023/07/03 07:00:24;;;;;;;3.80;2.95;;;24.70;99.90;;;;;;4992310;28;20053;-69
2023/07/03 07:02:49;;;;;;;3.33;2.53;;;24.80;99.10;;;;;;4997074;28;20038;-69
2023/07/03 07:05:15;;;;;;;3.05;2.33;;;24.90;99.80;;;;;;4995411;28;20029;-70
2023/07/03 07:07:41;;;;;;;5.50;2.90;;;24.90;98.90;;;;;;4997310;28;20537;-69
2023/07/03 07:10:07;;;;;;;3.35;2.90;;;25.00;99.80;;;;;;4993571;28;20044;-69
2023/07/03 07:12:32;;;;;;;3.10;2.78;;;25.10;99.20;;;;;;4994098;28;20117;-69
2023/07/03 07:14:58;;;;;;;3.63;3.05;;;25.20;99.10;;;;;;4997673;28;20517;-71
2023/07/03 07:17:24;;;;;;;4.82;2.97;;;25.30;97.40;;;;;;4993260;28;20029;-71
2023/07/03 07:19:50;;;;;;;3.92;3.17;;;25.40;96.60;;;;;;4994783;28;20042;-70
2023/07/03 07:22:15;;;;;;;3.65;3.17;;;25.40;95.50;;;;;;4991897;28;20620;-71
2023/07/03 07:24:41;;;;;;;3.55;2.72;;;25.40;95.50;;;;;;4999862;28;20398;-70
2023/07/03 07:27:07;;;;;;;4.40;2.95;;;25.40;93.20;;;;;;5000360;28;20022;-70
2023/07/03 07:29:34;;;;;;;8.75;3.90;;;25.40;95.10;;;;;;4991981;28;20430;-70
2023/07/03 07:32:00;;;;;;;9.02;3.55;;;25.40;93.50;;;;;;4991800;28;20022;-70
2023/07/03 07:34:25;;;;;;;5.10;3.65;;;25.40;92.40;;;;;;4996033;28;20135;-71
2023/07/03 07:36:51;;;;;;;4.85;4.10;;;25.50;93.20;;;;;;4989682;28;20114;-71
2023/07/03 07:39:21;;;;;;;24.05;4.38;;;25.60;93.50;;;;;;4987863;28;20642;-70
2023/07/03 07:41:50;;;;;;;4.40;3.35;;;25.70;90.50;;;;;;4999719;28;20117;-71
2023/07/03 07:44:16;;;;;;;9.30;3.63;;;25.60;90.90;;;;;;4995969;28;20032;-71
2023/07/03 07:46:42;;;;;;;8.60;3.80;;;25.60;91.90;;;;;;4991908;28;20026;-71
2023/07/03 07:49:08;;;;;;;6.53;4.30;;;25.70;89.90;;;;;;4996685;28;20096;-70
2023/07/03 07:51:34;;;;;;;8.70;4.20;;;25.70;89.70;;;;;;4992953;28;20062;-69
2023/07/03 07:54:02;;;;;;;6.72;4.32;;;25.70;87.70;;;;;;5000066;28;20033;-70
2023/07/03 07:56:27;;;;;;;7.85;4.30;;;25.70;90.30;;;;;;4994112;28;20069;-70
2023/07/03 07:58:53;;;;;;;5.20;4.10;;;25.80;87.20;;;;;;4996507;28;20124;-70
2023/07/03 08:01:19;;;;;;;8.90;4.63;;;25.80;89.60;;;;;;4997201;28;20034;-70
2023/07/03 08:03:45;;;;;;;9.82;5.28;;;25.90;85.80;;;;;;4996794;28;20053;-68
2023/07/03 08:06:13;;;;;;;12.70;5.50;;;25.90;86.80;;;;;;4995649;28;20041;-68
2023/07/03 08:08:39;;;;;;;12.45;6.05;;;25.80;88.00;;;;;;4997501;28;20398;-68
2023/07/03 08:11:07;;;;;;;8.18;5.60;;;25.80;83.60;;;;;;4995045;28;20039;-68
2023/07/03 08:13:33;;;;;;;8.35;5.43;;;25.80;82.80;;;;;;4995551;28;20137;-68
2023/07/03 08:15:59;;;;;;;12.63;5.68;;;25.80;80.60;;;;;;4995366;28;20590;-68
2023/07/03 08:18:25;;;;;;;9.00;5.38;;;25.80;81.60;;;;;;4999395;28;20119;-68
2023/07/03 08:20:52;;;;;;;7.55;5.70;;;25.90;82.00;;;;;;4995816;28;20046;-68
2023/07/03 08:23:18;;;;;;;8.32;6.15;;;26.10;82.20;;;;;;4992771;28;20046;-68
2023/07/03 08:25:48;;;;;;;7.68;5.22;;;26.00;76.20;;;;;;4997590;28;20474;-68
2023/07/03 08:28:13;;;;;;;8.40;5.32;;;25.70;76.80;;;;;;4998643;28;20038;-68
2023/07/03 08:30:39;;;;;;;8.38;5.95;;;25.70;78.70;;;;;;4996646;28;20038;-68
2023/07/03 08:33:04;;;;;;;9.23;6.22;;;25.90;85.30;;;;;;4992177;28;20049;-68
2023/07/03 08:35:30;;;;;;;8.00;6.47;;;26.10;82.10;;;;;;4988217;28;20124;-68
2023/07/03 08:37:56;;;;;;;7.28;6.10;;;26.10;77.90;;;;;;4992594;28;20060;-68
2023/07/03 08:40:22;;;;;;;8.55;5.90;;;26.20;81.90;;;;;;4973984;28;20052;-68
2023/07/03 08:42:55;;;;;;;8.02;6.40;;;26.30;80.30;;;;;;4994550;28;20034;-67
2023/07/03 08:45:27;;;;;;;11.43;5.82;;;26.40;81.40;;;;;;4996104;28;20046;-68
2023/07/03 08:47:55;;;;;;;8.60;6.25;;;26.50;81.40;;;;;;4995188;28;20040;-68
2023/07/03 08:50:22;;;;;;;7.90;6.45;;;26.60;78.60;;;;;;4995238;28;20823;-68
2023/07/03 08:52:57;;;;;;;8.18;6.30;;;26.60;82.70;;;;;;4994451;28;20121;-69
2023/07/03 08:55:27;;;;;;;8.88;6.57;;;26.70;80.20;;;;;;4996011;28;20136;-68
2023/07/03 08:57:52;;;;;;;6.88;5.57;;;26.80;77.70;;;;;;4992363;28;20577;-69
2023/07/03 09:00:20;;;;;;;7.25;5.55;;;26.80;77.60;;;;;;4994117;28;20129;-69
2023/07/03 09:02:58;;;;;;;8.23;5.82;;;26.80;79.70;;;;;;4993306;28;20130;-69
2023/07/03 09:05:57;;;;;;;10.18;5.45;;;26.70;75.90;;;;;;4996599;28;20464;-69
2023/07/03 09:08:41;;;;;;;8.32;5.50;;;26.80;74.70;;;;;;4996510;28;20034;-69
2023/07/03 09:11:09;;;;;;;7.55;5.93;;;26.90;76.20;;;;;;4995219;28;20144;-68
2023/07/03 09:13:42;;;;;;;10.38;6.32;;;27.00;76.40;;;;;;4993071;28;20109;-69
2023/07/03 09:16:22;;;;;;;9.02;7.00;;;27.10;78.10;;;;;;4998717;28;20041;-69
2023/07/03 09:19:04;;;;;;;7.57;6.10;;;27.10;74.90;;;;;;4996425;28;20076;-68
2023/07/03 09:21:32;;;;;;;9.73;6.13;;;27.10;74.60;;;;;;4993672;28;20450;-68
2023/07/03 09:24:22;;;;;;;10.63;6.68;;;26.90;78.80;;;;;;4992190;28;20069;-68
2023/07/03 09:27:08;;;;;;;8.93;6.22;;;27.00;74.00;;;;;;4990786;28;20113;-69
2023/07/03 09:29:36;;;;;;;8.70;6.28;;;27.00;76.20;;;;;;4990520;28;20045;-70
2023/07/03 09:32:02;;;;;;;8.18;5.85;;;27.00;71.70;;;;;;4992067;28;20245;-69
2023/07/03 09:34:27;;;;;;;7.97;5.80;;;26.90;70.40;;;;;;4988153;28;20528;-69
2023/07/03 09:36:59;;;;;;;8.07;5.93;;;26.90;71.90;;;;;;4998297;28;20649;-69
2023/07/03 09:39:25;;;;;;;7.85;6.30;;;26.90;70.80;;;;;;4995961;28;20603;-69
2023/07/03 09:41:53;;;;;;;8.95;6.10;;;26.60;70.00;;;;;;4991104;28;20030;-69
2023/07/03 09:44:21;;;;;;;8.55;6.60;;;26.30;69.10;;;;;;4992311;28;20049;-68
2023/07/03 09:46:47;;;;;;;8.30;6.57;;;26.30;71.80;;;;;;4990793;28;20030;-68
2023/07/03 09:49:22;;;;;;;8.63;6.20;;;26.40;73.80;;;;;;4992216;28;20112;-69
2023/07/03 09:51:52;;;;;;;8.60;6.50;;;26.50;70.70;;;;;;4994452;28;20092;-68
2023/07/03 09:54:22;;;;;;;6.63;5.63;;;26.60;70.20;;;;;;4990450;28;20080;-68
2023/07/03 09:56:49;;;;;;;6.43;5.53;;;26.60;69.70;;;;;;4974705;28;20495;-68
2023/07/03 09:59:19;;;;;;;7.40;5.93;;;26.70;73.80;;;;;;4975404;28;20435;-67
2023/07/03 10:01:46;;;;;;;7.65;5.55;;;26.70;76.60;;;;;;4986636;28;20042;-68
2023/07/03 10:04:14;;;;;;;27.33;10.52;;;26.70;74.60;;;;;;4988943;28;20038;-67
2023/07/03 10:06:56;;;;;;;16.15;7.55;;;26.70;75.70;;;;;;4992585;28;20041;-68
2023/07/03 10:09:26;;;;;;;19.58;6.43;;;26.70;72.60;;;;;;4991827;28;20042;-69
2023/07/03 10:12:00;;;;;;;9.38;5.70;;;26.70;78.50;;;;;;4989158;28;20037;-67
2023/07/03 10:14:55;;;;;;;7.88;5.43;;;26.90;75.90;;;;;;4979145;28;20046;-68
2023/07/03 10:17:34;;;;;;;11.25;5.30;;;26.80;72.80;;;;;;4986871;28;20054;-68
2023/07/03 10:20:09;;;;;;;7.10;5.05;;;26.70;79.30;;;;;;4985096;28;20084;-68
2023/07/03 10:22:37;;;;;;;8.55;5.45;;;26.90;74.60;;;;;;4986727;28;20121;-68
2023/07/03 10:25:09;;;;;;;7.93;5.80;;;27.00;73.80;;;;;;4987884;28;20116;-66
2023/07/03 10:27:37;;;;;;;7.22;5.57;;;26.90;73.70;;;;;;4994865;28;20034;-68
2023/07/03 10:30:11;;;;;;;8.40;5.68;;;26.90;72.30;;;;;;4971300;28;20593;-68
2023/07/03 10:32:39;;;;;;;7.55;5.15;;;26.90;71.80;;;;;;4987721;28;20797;-68
2023/07/03 10:35:21;;;;;;;8.15;5.68;;;26.80;73.00;;;;;;4991799;28;20042;-68
2023/07/03 10:38:18;;;;;;;12.45;6.30;;;26.80;74.00;;;;;;4992261;28;20623;-67
2023/07/03 10:40:51;;;;;;;7.80;5.28;;;26.80;74.60;;;;;;4985535;28;20046;-67
2023/07/03 10:43:18;;;;;;;7.40;5.32;;;26.70;72.10;;;;;;4988690;28;20201;-67
2023/07/03 10:45:45;;;;;;;7.97;5.43;;;26.80;75.80;;;;;;4990640;28;20046;-67
2023/07/03 10:48:22;;;;;;;8.75;5.05;;;26.80;77.20;;;;;;4995336;28;20058;-66
2023/07/03 10:51:06;;;;;;;6.05;5.07;;;26.90;77.70;;;;;;4992611;28;20030;-67
2023/07/03 10:53:34;;;;;;;8.50;5.47;;;26.90;77.50;;;;;;4984746;28;20546;-67
2023/07/03 10:56:17;;;;;;;7.47;5.20;;;26.90;74.50;;;;;;4994119;28;20041;-67
2023/07/03 10:59:04;;;;;;;5.63;4.97;;;26.80;75.90;;;;;;4994366;28;20053;-67
2023/07/03 11:01:40;;;;;;;5.88;4.10;;;26.70;79.10;;;;;;4990624;28;20039;-67
2023/07/03 11:04:24;;;;;;;7.05;4.28;;;26.60;75.00;;;;;;4989652;28;20073;-67
2023/07/03 11:07:13;;;;;;;6.85;4.43;;;26.60;77.80;;;;;;5000104;28;20030;-67
2023/07/03 11:09:46;;;;;;;6.28;4.80;;;26.60;74.60;;;;;;4990586;28;20046;-67
2023/07/03 11:12:23;;;;;;;6.03;5.00;;;26.60;74.60;;;;;;4991320;28;20060;-67
2023/07/03 11:14:55;;;;;;;5.95;4.97;;;26.60;75.20;;;;;;4994445;28;20087;-67
2023/07/03 11:17:48;;;;;;;5.25;4.57;;;26.60;75.30;;;;;;4993850;28;20175;-67
2023/07/03 11:20:36;;;;;;;6.70;4.38;;;26.60;76.70;;;;;;4989968;28;20711;-67
2023/07/03 11:23:05;;;;;;;6.70;4.82;;;26.60;75.90;;;;;;4993598;28;20033;-67
2023/07/03 11:25:40;;;;;;;5.10;4.50;;;26.60;77.70;;;;;;4985353;28;20037;-67
2023/07/03 11:28:14;;;;;;;9.43;4.82;;;26.60;79.10;;;;;;4985657;28;20560;-67
2023/07/03 11:30:42;;;;;;;7.45;4.97;;;26.60;78.40;;;;;;4989071;28;20037;-67
2023/07/03 11:33:08;;;;;;;8.02;4.57;;;26.80;78.10;;;;;;4990508;28;20042;-67
2023/07/03 11:35:34;;;;;;;6.72;4.78;;;26.90;79.20;;;;;;4996839;28;20076;-67
2023/07/03 11:38:09;;;;;;;5.50;4.80;;;27.00;75.30;;;;;;4996019;28;20047;-67
2023/07/03 11:40:53;;;;;;;5.80;4.90;;;27.10;75.60;;;;;;4991053;28;20120;-67
2023/07/03 11:43:28;;;;;;;6.70;5.10;;;27.30;74.00;;;;;;4997603;28;20037;-67
2023/07/03 11:45:57;;;;;;;6.45;5.03;;;27.40;77.50;;;;;;4993631;28;20073;-67
2023/07/03 11:48:29;;;;;;;7.15;5.22;;;27.50;74.10;;;;;;4994825;28;20034;-67
2023/07/03 11:51:01;;;;;;;6.20;4.60;;;27.50;74.20;;;;;;4997884;28;20069;-68
2023/07/03 11:53:57;;;;;;;8.23;5.50;;;27.50;77.20;;;;;;5001306;28;20121;-67
2023/07/03 11:56:39;;;;;;;6.40;5.25;;;27.40;75.80;;;;;;4995738;28;20040;-68
2023/07/03 11:59:22;;;;;;;;;;;27.40;76.60;;;;;;4995679;28;20114;-67
2023/07/03 12:01:49;;;;;;;6.85;5.45;;;27.50;74.30;;;;;;4989224;28;23836;-67
2023/07/03 12:04:47;;;;;;;7.80;5.15;;;27.40;74.30;;;;;;4970699;28;20583;-67
2023/07/03 12:07:20;;;;;;;8.43;5.00;;;27.30;78.50;;;;;;4983794;28;20057;-68
2023/07/03 12:09:47;;;;;;;7.30;5.22;;;27.30;75.60;;;;;;4983692;28;20035;-68
2023/07/03 12:12:18;;;;;;;7.18;4.93;;;27.30;76.20;;;;;;4986984;28;20128;-68
2023/07/03 12:15:00;;;;;;;7.97;5.53;;;27.30;77.60;;;;;;4978896;28;20126;-68
2023/07/03 12:17:35;;;;;;;8.70;5.90;;;27.30;77.10;;;;;;4974233;28;20057;-68
2023/07/03 12:20:06;;;;;;;5.85;5.15;;;27.30;76.90;;;;;;4982589;28;20029;-69
2023/07/03 12:22:46;;;;;;;9.48;5.70;;;27.30;76.20;;;;;;4986499;28;20512;-68
2023/07/03 12:25:27;;;;;;;6.57;5.43;;;27.30;78.20;;;;;;4985189;28;20034;-68
2023/07/03 12:27:55;;;;;;;7.78;5.93;;;27.20;76.40;;;;;;4989018;28;20037;-68
2023/07/03 12:30:30;;;;;;;7.75;5.90;;;27.20;79.10;;;;;;4988552;28;20534;-69
2023/07/03 12:32:58;;;;;;;9.15;5.72;;;27.10;79.00;;;;;;4983620;28;20575;-68
2023/07/03 12:35:27;;;;;;;7.70;6.28;;;26.90;82.40;;;;;;4988834;28;20041;-68
2023/07/03 12:38:00;;;;;;;6.55;5.43;;;26.90;81.50;;;;;;4973816;28;20062;-68
2023/07/03 12:40:26;;;;;;;12.18;6.20;;;26.90;82.40;;;;;;4984623;28;20042;-68
2023/07/03 12:42:54;;;;;;;9.30;6.65;;;27.00;82.50;;;;;;4991201;28;20061;-69
2023/07/03 12:45:21;;;;;;;8.88;6.85;;;27.00;78.40;;;;;;4985626;28;20050;-68
2023/07/03 12:48:07;;;;;;;7.13;6.15;;;26.90;81.70;;;;;;4984218;28;20131;-68
2023/07/03 12:50:44;;;;;;;9.15;6.38;;;26.80;81.10;;;;;;4992192;28;20038;-68
2023/07/03 12:53:10;;;;;;;6.90;6.10;;;26.60;83.70;;;;;;4985259;28;20037;-68
2023/07/03 12:55:37;;;;;;;8.93;6.28;;;26.50;81.90;;;;;;4991163;28;20053;-69